sensor_id;sensor_type;location;lat;lon;timestamp;pressure;altitude;pressure_sealevel;temperature;humidity
596;BME280;19946;49.306;11.350;2023-04-30T00:00:58;96608.09;;;8.27;100.00
596;BME280;19946;49.306;11.350;2023-04-30T00:03:59;96623.56;;;8.51;100.00
596;BME280;19946;49.306;11.350;2023-04-30T00:07:07;96607.63;;;8.22;100.00
596;BME280;19946;49.306;11.350;2023-04-30T00:13:33;96657.09;;;8.39;100.00
596;BME280;19946;49.306;11.350;2023-04-30T00:16:34;96586.06;;;7.99;100.00
596;BME280;19946;49.306;11.350;2023-04-30T00:19:35;96570.25;;;7.80;100.00
596;BME280;19946;49.306;11.350;2023-04-30T00:22:36;96661.41;;;8.39;100.00
596;BME280;19946;49.306;11.350;2023-04-30T00:25:39;96592.38;;;7.95;100.00
596;BME280;19946;49.306;11.350;2023-04-30T00:28:40;96599.31;;;8.05;100.00
596;BME280;19946;49.306;11.350;2023-04-30T00:31:41;96624.34;;;8.16;100.00
596;BME280;19946;49.306;11.350;2023-04-30T00:34:45;96652.97;;;8.37;100.00
596;BME280;19946;49.306;11.350;2023-04-30T00:37:48;96588.75;;;7.97;100.00
596;BME280;19946;49.306;11.350;2023-04-30T00:40:51;96592.47;;;7.93;100.00
596;BME280;19946;49.306;11.350;2023-04-30T00:43:52;96647.81;;;8.24;100.00
596;BME280;19946;49.306;11.350;2023-04-30T00:46:53;96631.59;;;8.11;100.00
596;BME280;19946;49.306;11.350;2023-04-30T00:49:54;96672.31;;;8.31;100.00
596;BME280;19946;49.306;11.350;2023-04-30T00:52:55;96611.56;;;7.91;100.00
596;BME280;19946;49.306;11.350;2023-04-30T00:55:56;96610.03;;;7.88;100.00
596;BME280;19946;49.306;11.350;2023-04-30T00:58:59;96618.97;;;7.95;100.00
596;BME280;19946;49.306;11.350;2023-04-30T01:02:02;96624.84;;;7.97;100.00
596;BME280;19946;49.306;11.350;2023-04-30T01:05:03;96657.06;;;8.16;100.00
596;BME280;19946;49.306;11.350;2023-04-30T01:08:04;96621.28;;;7.87;100.00
596;BME280;19946;49.306;11.350;2023-04-30T01:18:30;96682.28;;;8.23;100.00
596;BME280;19946;49.306;11.350;2023-04-30T01:21:37;96634.53;;;7.94;100.00
596;BME280;19946;49.306;11.350;2023-04-30T01:28:18;96690.53;;;8.28;100.00
596;BME280;19946;49.306;11.350;2023-04-30T01:31:23;96621.22;;;7.76;100.00
596;BME280;19946;49.306;11.350;2023-04-30T01:34:24;96605.13;;;7.73;100.00
596;BME280;19946;49.306;11.350;2023-04-30T01:41:19;96651.97;;;7.90;100.00
596;BME280;19946;49.306;11.350;2023-04-30T01:50:57;96685.06;;;8.09;100.00
596;BME280;19946;49.306;11.350;2023-04-30T01:54:10;96661.72;;;7.87;100.00
596;BME280;19946;49.306;11.350;2023-04-30T01:57:41;96688.97;;;8.02;100.00
596;BME280;19946;49.306;11.350;2023-04-30T02:00:42;96710.59;;;8.12;100.00
596;BME280;19946;49.306;11.350;2023-04-30T02:03:43;96712.66;;;8.20;100.00
596;BME280;19946;49.306;11.350;2023-04-30T02:06:44;96635.78;;;7.64;100.00
596;BME280;19946;49.306;11.350;2023-04-30T02:09:44;96686.75;;;7.97;100.00
596;BME280;19946;49.306;11.350;2023-04-30T02:12:45;96646.19;;;7.63;100.00
596;BME280;19946;49.306;11.350;2023-04-30T02:15:46;96709.19;;;8.08;100.00
596;BME280;19946;49.306;11.350;2023-04-30T02:18:47;96651.25;;;7.64;100.00
596;BME280;19946;49.306;11.350;2023-04-30T02:21:48;96681.63;;;7.72;100.00
596;BME280;19946;49.306;11.350;2023-04-30T02:24:49;96723.94;;;8.06;100.00
596;BME280;19946;49.306;11.350;2023-04-30T02:27:50;96711.59;;;7.98;100.00
596;BME280;19946;49.306;11.350;2023-04-30T02:30:51;96703.34;;;7.93;100.00
596;BME280;19946;49.306;11.350;2023-04-30T02:33:55;96666.38;;;7.69;100.00
596;BME280;19946;49.306;11.350;2023-04-30T02:36:56;96677.31;;;7.73;100.00
596;BME280;19946;49.306;11.350;2023-04-30T02:40:02;96643.72;;;7.61;100.00
596;BME280;19946;49.306;11.350;2023-04-30T02:47:01;96689.44;;;7.83;100.00
596;BME280;19946;49.306;11.350;2023-04-30T02:53:19;96728.78;;;8.11;100.00
596;BME280;19946;49.306;11.350;2023-04-30T02:56:29;96733.88;;;8.23;100.00
596;BME280;19946;49.306;11.350;2023-04-30T02:59:32;96733.47;;;8.29;100.00
596;BME280;19946;49.306;11.350;2023-04-30T03:02:33;96686.63;;;7.99;100.00
596;BME280;19946;49.306;11.350;2023-04-30T03:05:35;96664.69;;;7.81;100.00
596;BME280;19946;49.306;11.350;2023-04-30T03:08:58;96735.44;;;7.89;100.00
596;BME280;19946;49.306;11.350;2023-04-30T03:12:00;96676.13;;;7.53;100.00
596;BME280;19946;49.306;11.350;2023-04-30T03:15:02;96708.00;;;7.88;100.00
596;BME280;19946;49.306;11.350;2023-04-30T03:21:19;96655.28;;;7.56;100.00
596;BME280;19946;49.306;11.350;2023-04-30T03:24:24;96702.03;;;7.88;100.00
596;BME280;19946;49.306;11.350;2023-04-30T03:27:24;96742.53;;;7.98;100.00
596;BME280;19946;49.306;11.350;2023-04-30T03:30:25;96696.38;;;7.70;100.00
596;BME280;19946;49.306;11.350;2023-04-30T03:33:26;96705.63;;;7.85;100.00
596;BME280;19946;49.306;11.350;2023-04-30T03:36:27;96687.81;;;7.69;100.00
596;BME280;19946;49.306;11.350;2023-04-30T03:39:28;96644.19;;;7.43;100.00
596;BME280;19946;49.306;11.350;2023-04-30T03:45:47;96649.97;;;7.46;100.00
596;BME280;19946;49.306;11.350;2023-04-30T03:48:48;96727.72;;;7.89;100.00
596;BME280;19946;49.306;11.350;2023-04-30T03:51:49;96704.72;;;7.74;100.00
596;BME280;19946;49.306;11.350;2023-04-30T03:54:50;96644.09;;;7.31;100.00
596;BME280;19946;49.306;11.350;2023-04-30T03:57:51;96701.34;;;7.73;100.00
596;BME280;19946;49.306;11.350;2023-04-30T04:00:52;96648.81;;;7.38;100.00
596;BME280;19946;49.306;11.350;2023-04-30T04:04:06;96643.91;;;7.35;100.00
596;BME280;19946;49.306;11.350;2023-04-30T04:07:34;96698.56;;;7.63;100.00
596;BME280;19946;49.306;11.350;2023-04-30T04:10:43;96671.69;;;7.42;100.00
596;BME280;19946;49.306;11.350;2023-04-30T04:14:01;96673.44;;;7.42;100.00
596;BME280;19946;49.306;11.350;2023-04-30T04:17:53;96717.34;;;7.65;100.00
596;BME280;19946;49.306;11.350;2023-04-30T04:21:12;96660.47;;;7.30;100.00
596;BME280;19946;49.306;11.350;2023-04-30T04:24:41;96750.28;;;7.86;100.00
596;BME280;19946;49.306;11.350;2023-04-30T04:27:56;96688.38;;;7.49;100.00
596;BME280;19946;49.306;11.350;2023-04-30T04:32:05;96700.03;;;7.55;100.00
596;BME280;19946;49.306;11.350;2023-04-30T04:35:35;96679.44;;;7.42;100.00
596;BME280;19946;49.306;11.350;2023-04-30T04:39:06;96648.97;;;7.23;100.00
596;BME280;19946;49.306;11.350;2023-04-30T04:42:18;96757.22;;;7.85;100.00
596;BME280;19946;49.306;11.350;2023-04-30T04:45:25;96667.91;;;7.35;100.00
596;BME280;19946;49.306;11.350;2023-04-30T04:48:34;96748.44;;;7.88;100.00
596;BME280;19946;49.306;11.350;2023-04-30T04:52:29;96758.94;;;7.97;100.00
596;BME280;19946;49.306;11.350;2023-04-30T04:55:42;96747.59;;;8.00;100.00
596;BME280;19946;49.306;11.350;2023-04-30T04:59:15;96750.47;;;7.95;100.00
596;BME280;19946;49.306;11.350;2023-04-30T05:02:56;96674.47;;;7.52;100.00
596;BME280;19946;49.306;11.350;2023-04-30T05:06:34;96703.91;;;7.73;100.00
596;BME280;19946;49.306;11.350;2023-04-30T05:10:01;96747.47;;;8.01;100.00
596;BME280;19946;49.306;11.350;2023-04-30T05:13:19;96657.38;;;7.38;100.00
596;BME280;19946;49.306;11.350;2023-04-30T05:16:26;96756.75;;;8.04;100.00
596;BME280;19946;49.306;11.350;2023-04-30T05:20:05;96706.19;;;7.65;100.00
596;BME280;19946;49.306;11.350;2023-04-30T05:23:24;96705.34;;;7.77;100.00
596;BME280;19946;49.306;11.350;2023-04-30T05:26:50;96673.44;;;7.54;100.00
596;BME280;19946;49.306;11.350;2023-04-30T05:30:02;96769.41;;;8.20;100.00
596;BME280;19946;49.306;11.350;2023-04-30T05:33:27;96683.38;;;7.72;100.00
596;BME280;19946;49.306;11.350;2023-04-30T05:37:41;96720.66;;;8.04;100.00
596;BME280;19946;49.306;11.350;2023-04-30T05:41:20;96776.31;;;8.56;100.00
596;BME280;19946;49.306;11.350;2023-04-30T05:45:05;96717.16;;;8.29;100.00
596;BME280;19946;49.306;11.350;2023-04-30T05:48:23;96694.31;;;8.12;100.00
596;BME280;19946;49.306;11.350;2023-04-30T05:51:29;96748.81;;;8.67;100.00
596;BME280;19946;49.306;11.350;2023-04-30T05:55:15;96743.66;;;8.67;100.00
596;BME280;19946;49.306;11.350;2023-04-30T05:58:26;96698.47;;;8.62;100.00
596;BME280;19946;49.306;11.350;2023-04-30T06:01:42;96739.03;;;8.84;100.00
596;BME280;19946;49.306;11.350;2023-04-30T06:18:05;96753.13;;;8.91;100.00
596;BME280;19946;49.306;11.350;2023-04-30T06:21:06;96705.88;;;8.77;100.00
596;BME280;19946;49.306;11.350;2023-04-30T06:24:07;96694.75;;;8.77;100.00
596;BME280;19946;49.306;11.350;2023-04-30T06:30:30;96763.38;;;9.49;100.00
596;BME280;19946;49.306;11.350;2023-04-30T06:33:48;96768.56;;;9.61;100.00
596;BME280;19946;49.306;11.350;2023-04-30T06:36:50;96708.53;;;9.00;100.00
596;BME280;19946;49.306;11.350;2023-04-30T06:39:50;96768.28;;;9.41;100.00
596;BME280;19946;49.306;11.350;2023-04-30T06:42:59;96764.69;;;9.55;100.00
596;BME280;19946;49.306;11.350;2023-04-30T06:46:00;96694.28;;;9.18;100.00
596;BME280;19946;49.306;11.350;2023-04-30T06:49:01;96765.75;;;9.64;100.00
596;BME280;19946;49.306;11.350;2023-04-30T06:52:05;96753.75;;;9.74;100.00
596;BME280;19946;49.306;11.350;2023-04-30T07:01:44;96729.91;;;9.48;100.00
596;BME280;19946;49.306;11.350;2023-04-30T07:04:47;96720.38;;;9.71;100.00
596;BME280;19946;49.306;11.350;2023-04-30T07:34:08;96789.47;;;10.58;100.00
596;BME280;19946;49.306;11.350;2023-04-30T07:37:10;96789.53;;;10.79;100.00
596;BME280;19946;49.306;11.350;2023-04-30T07:40:13;96738.25;;;10.61;100.00
596;BME280;19946;49.306;11.350;2023-04-30T07:43:15;96697.75;;;10.06;100.00
596;BME280;19946;49.306;11.350;2023-04-30T07:46:19;96740.19;;;10.48;100.00
596;BME280;19946;49.306;11.350;2023-04-30T07:49:19;96771.13;;;10.82;100.00
596;BME280;19946;49.306;11.350;2023-04-30T09:14:31;96732.16;;;12.56;93.22
596;BME280;19946;49.306;11.350;2023-04-30T09:38:42;96699.97;;;13.44;60.58
596;BME280;19946;49.306;11.350;2023-04-30T09:41:52;96762.31;;;13.17;61.31
596;BME280;19946;49.306;11.350;2023-04-30T09:44:57;96719.88;;;12.97;60.37
596;BME280;19946;49.306;11.350;2023-04-30T09:51:15;96692.22;;;12.67;60.33
596;BME280;19946;49.306;11.350;2023-04-30T10:00:52;96703.88;;;12.82;65.27
596;BME280;19946;49.306;11.350;2023-04-30T10:11:20;96726.84;;;14.09;70.18
596;BME280;19946;49.306;11.350;2023-04-30T10:14:24;96727.56;;;14.01;65.38
596;BME280;19946;49.306;11.350;2023-04-30T10:17:31;96692.41;;;13.60;64.38
596;BME280;19946;49.306;11.350;2023-04-30T10:20:36;96708.88;;;14.33;64.39
596;BME280;19946;49.306;11.350;2023-04-30T10:23:38;96694.56;;;15.00;70.05
596;BME280;19946;49.306;11.350;2023-04-30T10:26:40;96678.53;;;15.13;62.30
596;BME280;19946;49.306;11.350;2023-04-30T10:29:43;96724.31;;;15.15;66.59
596;BME280;19946;49.306;11.350;2023-04-30T10:33:18;96665.94;;;15.34;57.04
596;BME280;19946;49.306;11.350;2023-04-30T10:36:32;96694.03;;;16.00;58.60
596;BME280;19946;49.306;11.350;2023-04-30T10:39:36;96672.13;;;15.93;58.54
596;BME280;19946;49.306;11.350;2023-04-30T10:42:44;96658.69;;;14.13;58.09
596;BME280;19946;49.306;11.350;2023-04-30T10:45:45;96670.84;;;13.11;62.80
596;BME280;19946;49.306;11.350;2023-04-30T10:48:52;96650.66;;;12.96;69.19
596;BME280;19946;49.306;11.350;2023-04-30T10:51:58;96706.28;;;14.33;60.42
596;BME280;19946;49.306;11.350;2023-04-30T10:55:04;96692.28;;;14.79;64.54
596;BME280;19946;49.306;11.350;2023-04-30T10:58:22;96673.22;;;15.22;65.41
596;BME280;19946;49.306;11.350;2023-04-30T11:01:22;96690.63;;;16.08;58.13
596;BME280;19946;49.306;11.350;2023-04-30T11:04:23;96683.06;;;15.37;62.96
596;BME280;19946;49.306;11.350;2023-04-30T11:07:24;96700.47;;;15.80;61.30
596;BME280;19946;49.306;11.350;2023-04-30T11:10:31;96706.16;;;15.06;57.07
596;BME280;19946;49.306;11.350;2023-04-30T11:13:43;96697.94;;;14.57;64.84
596;BME280;19946;49.306;11.350;2023-04-30T11:16:48;96705.16;;;14.81;63.73
596;BME280;19946;49.306;11.350;2023-04-30T11:19:50;96678.56;;;15.73;64.07
596;BME280;19946;49.306;11.350;2023-04-30T11:23:14;96691.22;;;15.93;57.95
596;BME280;19946;49.306;11.350;2023-04-30T11:26:14;96690.75;;;15.12;57.03
596;BME280;19946;49.306;11.350;2023-04-30T11:29:15;96657.63;;;14.51;59.43
596;BME280;19946;49.306;11.350;2023-04-30T11:32:17;96670.88;;;14.40;59.37
596;BME280;19946;49.306;11.350;2023-04-30T11:35:18;96664.69;;;13.69;62.99
596;BME280;19946;49.306;11.350;2023-04-30T11:38:29;96690.53;;;13.33;62.59
596;BME280;19946;49.306;11.350;2023-04-30T11:41:30;96681.13;;;13.97;69.84
596;BME280;19946;49.306;11.350;2023-04-30T11:44:30;96673.03;;;14.00;63.56
596;BME280;19946;49.306;11.350;2023-04-30T11:47:48;96638.06;;;13.47;59.53
596;BME280;19946;49.306;11.350;2023-04-30T11:50:49;96637.34;;;14.10;66.41
596;BME280;19946;49.306;11.350;2023-04-30T11:53:51;96671.22;;;15.68;79.18
596;BME280;19946;49.306;11.350;2023-04-30T11:56:51;96648.56;;;16.27;57.83
596;BME280;19946;49.306;11.350;2023-04-30T11:59:52;96657.13;;;16.53;56.55
596;BME280;19946;49.306;11.350;2023-04-30T12:02:53;96618.91;;;15.94;60.70
596;BME280;19946;49.306;11.350;2023-04-30T12:05:53;96659.88;;;16.60;58.04
596;BME280;19946;49.306;11.350;2023-04-30T12:08:54;96660.09;;;17.15;65.53
596;BME280;19946;49.306;11.350;2023-04-30T12:11:55;96638.31;;;16.41;58.78
596;BME280;19946;49.306;11.350;2023-04-30T12:14:55;96657.97;;;17.19;53.20
596;BME280;19946;49.306;11.350;2023-04-30T12:17:57;96644.34;;;17.31;55.61
596;BME280;19946;49.306;11.350;2023-04-30T12:20:58;96599.19;;;17.37;48.11
596;BME280;19946;49.306;11.350;2023-04-30T12:23:59;96627.53;;;17.81;57.76
596;BME280;19946;49.306;11.350;2023-04-30T12:26:59;96643.19;;;18.59;48.05
596;BME280;19946;49.306;11.350;2023-04-30T12:30:05;96628.16;;;17.91;49.96
596;BME280;19946;49.306;11.350;2023-04-30T12:33:09;96629.03;;;18.06;51.21
596;BME280;19946;49.306;11.350;2023-04-30T12:36:09;96637.88;;;17.74;51.80
596;BME280;19946;49.306;11.350;2023-04-30T12:39:12;96635.19;;;16.38;50.10
596;BME280;19946;49.306;11.350;2023-04-30T12:42:18;96640.09;;;15.83;52.17
596;BME280;19946;49.306;11.350;2023-04-30T12:45:50;96623.66;;;16.81;52.11
596;BME280;19946;49.306;11.350;2023-04-30T12:48:53;96606.34;;;16.64;49.58
596;BME280;19946;49.306;11.350;2023-04-30T12:55:15;96612.47;;;17.83;44.79
596;BME280;19946;49.306;11.350;2023-04-30T12:58:16;96603.25;;;18.18;52.00
596;BME280;19946;49.306;11.350;2023-04-30T13:01:19;96621.44;;;17.88;47.99
596;BME280;19946;49.306;11.350;2023-04-30T13:04:20;96614.13;;;17.84;50.52
596;BME280;19946;49.306;11.350;2023-04-30T13:07:20;96606.94;;;18.32;52.74
596;BME280;19946;49.306;11.350;2023-04-30T13:10:21;96593.91;;;18.23;50.42
596;BME280;19946;49.306;11.350;2023-04-30T13:13:21;96583.66;;;17.83;50.08
596;BME280;19946;49.306;11.350;2023-04-30T13:16:22;96606.44;;;17.19;48.27
596;BME280;19946;49.306;11.350;2023-04-30T13:19:23;96608.78;;;16.82;52.40
596;BME280;19946;49.306;11.350;2023-04-30T13:22:24;96586.22;;;16.97;54.54
596;BME280;19946;49.306;11.350;2023-04-30T13:25:29;96593.34;;;16.14;52.81
596;BME280;19946;49.306;11.350;2023-04-30T13:28:29;96581.38;;;15.53;54.25
596;BME280;19946;49.306;11.350;2023-04-30T13:31:30;96593.09;;;15.83;50.50
596;BME280;19946;49.306;11.350;2023-04-30T13:34:30;96598.75;;;15.70;52.30
596;BME280;19946;49.306;11.350;2023-04-30T13:37:30;96602.88;;;15.47;49.64
596;BME280;19946;49.306;11.350;2023-04-30T13:40:31;96580.59;;;14.92;51.33
596;BME280;19946;49.306;11.350;2023-04-30T13:43:31;96602.25;;;14.93;52.28
596;BME280;19946;49.306;11.350;2023-04-30T13:46:32;96600.66;;;15.26;51.02
596;BME280;19946;49.306;11.350;2023-04-30T13:49:32;96573.63;;;14.75;50.57
596;BME280;19946;49.306;11.350;2023-04-30T13:52:36;96591.81;;;14.67;51.00
596;BME280;19946;49.306;11.350;2023-04-30T13:55:36;96604.31;;;14.64;51.63
596;BME280;19946;49.306;11.350;2023-04-30T13:58:36;96588.19;;;14.86;50.75
596;BME280;19946;49.306;11.350;2023-04-30T14:01:37;96555.91;;;14.79;50.62
596;BME280;19946;49.306;11.350;2023-04-30T14:04:37;96575.09;;;15.63;50.35
596;BME280;19946;49.306;11.350;2023-04-30T14:07:38;96573.13;;;16.89;50.81
596;BME280;19946;49.306;11.350;2023-04-30T14:10:38;96554.69;;;17.76;46.37
596;BME280;19946;49.306;11.350;2023-04-30T14:13:38;96556.09;;;17.95;52.32
596;BME280;19946;49.306;11.350;2023-04-30T14:16:39;96528.53;;;16.41;46.20
596;BME280;19946;49.306;11.350;2023-04-30T14:19:39;96551.88;;;16.59;47.11
596;BME280;19946;49.306;11.350;2023-04-30T14:22:40;96561.16;;;15.97;47.53
596;BME280;19946;49.306;11.350;2023-04-30T14:25:41;96552.56;;;15.62;47.34
596;BME280;19946;49.306;11.350;2023-04-30T14:28:41;96561.31;;;15.95;47.27
596;BME280;19946;49.306;11.350;2023-04-30T14:31:41;96549.66;;;15.74;50.62
596;BME280;19946;49.306;11.350;2023-04-30T14:34:42;96552.06;;;16.74;49.85
596;BME280;19946;49.306;11.350;2023-04-30T14:37:43;96546.38;;;17.26;48.56
596;BME280;19946;49.306;11.350;2023-04-30T14:40:44;96523.53;;;17.20;45.12
596;BME280;19946;49.306;11.350;2023-04-30T14:43:44;96537.72;;;17.25;45.03
596;BME280;19946;49.306;11.350;2023-04-30T14:46:44;96533.75;;;16.82;45.74
596;BME280;19946;49.306;11.350;2023-04-30T14:49:45;96538.09;;;17.14;51.75
596;BME280;19946;49.306;11.350;2023-04-30T14:52:45;96523.78;;;17.41;49.55
596;BME280;19946;49.306;11.350;2023-04-30T14:55:46;96495.13;;;17.00;46.67
596;BME280;19946;49.306;11.350;2023-04-30T14:58:46;96527.59;;;17.22;45.66
596;BME280;19946;49.306;11.350;2023-04-30T15:01:47;96489.81;;;16.69;47.29
596;BME280;19946;49.306;11.350;2023-04-30T15:04:47;96527.75;;;15.58;47.92
596;BME280;19946;49.306;11.350;2023-04-30T15:07:47;96523.25;;;15.34;47.84
596;BME280;19946;49.306;11.350;2023-04-30T15:10:48;96510.69;;;14.96;48.62
596;BME280;19946;49.306;11.350;2023-04-30T15:13:48;96520.44;;;15.28;46.17
596;BME280;19946;49.306;11.350;2023-04-30T15:16:49;96517.56;;;15.39;46.29
596;BME280;19946;49.306;11.350;2023-04-30T15:19:50;96502.25;;;15.44;50.19
596;BME280;19946;49.306;11.350;2023-04-30T15:22:50;96515.41;;;15.77;46.53
596;BME280;19946;49.306;11.350;2023-04-30T15:25:52;96517.41;;;16.07;48.71
596;BME280;19946;49.306;11.350;2023-04-30T15:28:54;96461.06;;;15.64;46.89
596;BME280;19946;49.306;11.350;2023-04-30T15:31:55;96509.41;;;15.34;48.23
596;BME280;19946;49.306;11.350;2023-04-30T15:34:56;96522.47;;;15.42;48.60
596;BME280;19946;49.306;11.350;2023-04-30T15:37:56;96511.94;;;15.26;47.80
596;BME280;19946;49.306;11.350;2023-04-30T15:40:56;96493.91;;;14.98;49.99
596;BME280;19946;49.306;11.350;2023-04-30T15:43:56;96503.53;;;14.98;49.44
596;BME280;19946;49.306;11.350;2023-04-30T15:46:57;96508.38;;;15.27;50.26
596;BME280;19946;49.306;11.350;2023-04-30T15:49:57;96506.81;;;15.50;49.61
596;BME280;19946;49.306;11.350;2023-04-30T15:52:58;96490.09;;;15.69;50.72
596;BME280;19946;49.306;11.350;2023-04-30T15:55:58;96509.53;;;15.66;48.75
596;BME280;19946;49.306;11.350;2023-04-30T15:58:58;96478.31;;;15.15;49.40
596;BME280;19946;49.306;11.350;2023-04-30T16:01:59;96505.88;;;15.09;48.97
596;BME280;19946;49.306;11.350;2023-04-30T16:04:59;96488.13;;;14.79;49.01
596;BME280;19946;49.306;11.350;2023-04-30T16:07:59;96518.81;;;14.93;50.40
596;BME280;19946;49.306;11.350;2023-04-30T16:11:00;96514.94;;;14.97;48.83
596;BME280;19946;49.306;11.350;2023-04-30T16:14:01;96516.16;;;14.85;48.99
596;BME280;19946;49.306;11.350;2023-04-30T16:17:01;96504.19;;;15.00;50.52
596;BME280;19946;49.306;11.350;2023-04-30T16:20:02;96499.44;;;14.95;50.85
596;BME280;19946;49.306;11.350;2023-04-30T16:23:02;96506.69;;;15.10;51.20
596;BME280;19946;49.306;11.350;2023-04-30T16:26:03;96503.28;;;15.17;49.37
596;BME280;19946;49.306;11.350;2023-04-30T16:29:04;96498.75;;;15.27;49.08
596;BME280;19946;49.306;11.350;2023-04-30T16:32:04;96492.63;;;15.45;49.38
596;BME280;19946;49.306;11.350;2023-04-30T16:35:05;96489.75;;;15.56;49.78
596;BME280;19946;49.306;11.350;2023-04-30T16:38:06;96470.72;;;15.29;47.61
596;BME280;19946;49.306;11.350;2023-04-30T16:41:06;96493.13;;;15.06;49.42
596;BME280;19946;49.306;11.350;2023-04-30T16:44:07;96478.44;;;14.71;49.07
596;BME280;19946;49.306;11.350;2023-04-30T16:47:08;96487.56;;;14.67;49.39
596;BME280;19946;49.306;11.350;2023-04-30T16:50:09;96476.47;;;14.39;50.09
596;BME280;19946;49.306;11.350;2023-04-30T16:53:10;96500.69;;;14.57;49.85
596;BME280;19946;49.306;11.350;2023-04-30T16:56:10;96504.25;;;14.39;50.90
596;BME280;19946;49.306;11.350;2023-04-30T16:59:10;96502.13;;;14.34;50.50
596;BME280;19946;49.306;11.350;2023-04-30T17:02:11;96503.47;;;14.38;50.95
596;BME280;19946;49.306;11.350;2023-04-30T17:05:11;96475.66;;;14.21;50.81
596;BME280;19946;49.306;11.350;2023-04-30T17:08:12;96497.59;;;14.18;51.33
596;BME280;19946;49.306;11.350;2023-04-30T17:11:12;96473.28;;;14.10;51.34
596;BME280;19946;49.306;11.350;2023-04-30T17:14:13;96444.25;;;13.79;52.55
596;BME280;19946;49.306;11.350;2023-04-30T17:17:13;96495.53;;;14.22;52.29
596;BME280;19946;49.306;11.350;2023-04-30T17:20:13;96484.38;;;14.12;51.09
596;BME280;19946;49.306;11.350;2023-04-30T17:23:14;96485.19;;;14.12;51.31
596;BME280;19946;49.306;11.350;2023-04-30T17:26:15;96467.97;;;13.94;51.10
596;BME280;19946;49.306;11.350;2023-04-30T17:29:17;96494.50;;;14.15;51.49
596;BME280;19946;49.306;11.350;2023-04-30T17:32:18;96496.19;;;14.06;52.22
596;BME280;19946;49.306;11.350;2023-04-30T17:35:19;96468.47;;;13.79;53.03
596;BME280;19946;49.306;11.350;2023-04-30T17:38:20;96498.88;;;13.79;52.31
596;BME280;19946;49.306;11.350;2023-04-30T17:41:20;96460.06;;;13.68;52.01
596;BME280;19946;49.306;11.350;2023-04-30T17:44:20;96491.84;;;13.71;51.39
596;BME280;19946;49.306;11.350;2023-04-30T17:47:21;96502.06;;;13.55;53.91
596;BME280;19946;49.306;11.350;2023-04-30T17:50:22;96499.09;;;13.50;53.13
596;BME280;19946;49.306;11.350;2023-04-30T17:53:22;96475.94;;;13.29;52.50
596;BME280;19946;49.306;11.350;2023-04-30T17:56:23;96482.94;;;13.29;53.07
596;BME280;19946;49.306;11.350;2023-04-30T17:59:24;96471.09;;;13.17;54.12
596;BME280;19946;49.306;11.350;2023-04-30T18:02:25;96475.00;;;12.93;55.00
596;BME280;19946;49.306;11.350;2023-04-30T18:05:25;96475.22;;;13.00;54.80
596;BME280;19946;49.306;11.350;2023-04-30T18:08:25;96493.75;;;12.97;54.24
596;BME280;19946;49.306;11.350;2023-04-30T18:11:26;96473.81;;;12.78;54.17
596;BME280;19946;49.306;11.350;2023-04-30T18:14:27;96463.59;;;12.67;54.56
596;BME280;19946;49.306;11.350;2023-04-30T18:17:27;96476.50;;;12.59;56.00
596;BME280;19946;49.306;11.350;2023-04-30T18:20:28;96471.59;;;12.46;55.71
596;BME280;19946;49.306;11.350;2023-04-30T18:23:28;96483.06;;;12.63;56.10
596;BME280;19946;49.306;11.350;2023-04-30T18:26:28;96484.44;;;12.48;57.24
596;BME280;19946;49.306;11.350;2023-04-30T18:29:28;96490.34;;;12.40;56.41
596;BME280;19946;49.306;11.350;2023-04-30T18:32:29;96442.06;;;12.00;57.05
596;BME280;19946;49.306;11.350;2023-04-30T18:35:30;96488.47;;;12.32;57.02
596;BME280;19946;49.306;11.350;2023-04-30T18:38:30;96481.47;;;12.23;56.68
596;BME280;19946;49.306;11.350;2023-04-30T18:41:31;96491.63;;;12.07;57.53
596;BME280;19946;49.306;11.350;2023-04-30T18:44:31;96485.91;;;11.84;58.44
596;BME280;19946;49.306;11.350;2023-04-30T18:47:32;96500.66;;;11.84;58.60
596;BME280;19946;49.306;11.350;2023-04-30T18:50:32;96452.66;;;11.49;58.68
596;BME280;19946;49.306;11.350;2023-04-30T18:53:34;96497.78;;;11.77;58.27
596;BME280;19946;49.306;11.350;2023-04-30T18:56:34;96465.78;;;11.57;58.07
596;BME280;19946;49.306;11.350;2023-04-30T18:59:37;96502.28;;;11.75;58.85
596;BME280;19946;49.306;11.350;2023-04-30T19:02:38;96487.88;;;11.52;58.76
596;BME280;19946;49.306;11.350;2023-04-30T19:05:39;96503.88;;;11.57;59.36
596;BME280;19946;49.306;11.350;2023-04-30T19:08:41;96506.31;;;11.49;59.73
596;BME280;19946;49.306;11.350;2023-04-30T19:11:43;96511.63;;;11.47;60.03
596;BME280;19946;49.306;11.350;2023-04-30T19:14:43;96484.72;;;11.29;59.85
596;BME280;19946;49.306;11.350;2023-04-30T19:17:44;96507.94;;;11.40;59.79
596;BME280;19946;49.306;11.350;2023-04-30T19:20:58;96508.28;;;11.26;59.48
596;BME280;19946;49.306;11.350;2023-04-30T19:24:02;96509.81;;;11.28;59.13
596;BME280;19946;49.306;11.350;2023-04-30T19:27:03;96514.75;;;11.31;59.70
596;BME280;19946;49.306;11.350;2023-04-30T19:30:03;96513.88;;;11.21;58.67
596;BME280;19946;49.306;11.350;2023-04-30T19:33:04;96492.66;;;10.97;59.07
596;BME280;19946;49.306;11.350;2023-04-30T19:36:04;96505.13;;;11.03;59.82
596;BME280;19946;49.306;11.350;2023-04-30T19:39:05;96510.28;;;11.03;59.53
596;BME280;19946;49.306;11.350;2023-04-30T19:42:09;96518.63;;;11.16;57.96
596;BME280;19946;49.306;11.350;2023-04-30T19:45:10;96508.56;;;11.13;58.13
596;BME280;19946;49.306;11.350;2023-04-30T19:48:10;96501.03;;;11.10;57.57
596;BME280;19946;49.306;11.350;2023-04-30T19:51:12;96516.06;;;11.26;57.76
596;BME280;19946;49.306;11.350;2023-04-30T19:54:12;96498.28;;;11.02;57.91
596;BME280;19946;49.306;11.350;2023-04-30T19:57:13;96527.53;;;11.14;57.44
596;BME280;19946;49.306;11.350;2023-04-30T20:00:14;96510.56;;;11.00;57.10
596;BME280;19946;49.306;11.350;2023-04-30T20:03:16;96514.13;;;11.09;57.09